sensor_id;sensor_type;location;lat;lon;timestamp;P1;durP1;ratioP1;P2;durP2;ratioP2
14015;SDS011;7083;48.854;9.158;2023-06-22T00:01:09;8.17;;;7.53;;
14015;SDS011;7083;48.854;9.158;2023-06-22T00:03:35;7.70;;;7.10;;
14015;SDS011;7083;48.854;9.158;2023-06-22T00:06:02;10.03;;;9.13;;
14015;SDS011;7083;48.854;9.158;2023-06-22T00:08:29;9.07;;;8.37;;
14015;SDS011;7083;48.854;9.158;2023-06-22T00:10:56;10.73;;;8.30;;
14015;SDS011;7083;48.854;9.158;2023-06-22T00:13:22;8.50;;;7.70;;
14015;SDS011;7083;48.854;9.158;2023-06-22T00:15:49;9.37;;;8.50;;
14015;SDS011;7083;48.854;9.158;2023-06-22T00:18:17;8.60;;;7.90;;
14015;SDS011;7083;48.854;9.158;2023-06-22T00:20:44;9.37;;;8.50;;
14015;SDS011;7083;48.854;9.158;2023-06-22T00:23:10;10.07;;;9.10;;
14015;SDS011;7083;48.854;9.158;2023-06-22T00:25:40;8.23;;;7.63;;
14015;SDS011;7083;48.854;9.158;2023-06-22T00:28:07;9.57;;;8.50;;
14015;SDS011;7083;48.854;9.158;2023-06-22T00:30:34;9.27;;;8.47;;
14015;SDS011;7083;48.854;9.158;2023-06-22T00:33:01;9.53;;;8.83;;
14015;SDS011;7083;48.854;9.158;2023-06-22T00:35:29;9.20;;;8.30;;
14015;SDS011;7083;48.854;9.158;2023-06-22T00:37:56;10.03;;;9.20;;
14015;SDS011;7083;48.854;9.158;2023-06-22T00:40:25;9.63;;;8.83;;
14015;SDS011;7083;48.854;9.158;2023-06-22T00:42:52;8.87;;;8.27;;
14015;SDS011;7083;48.854;9.158;2023-06-22T00:45:19;8.53;;;7.93;;
14015;SDS011;7083;48.854;9.158;2023-06-22T00:47:48;9.33;;;8.53;;
14015;SDS011;7083;48.854;9.158;2023-06-22T00:50:16;8.50;;;7.80;;
14015;SDS011;7083;48.854;9.158;2023-06-22T00:52:47;9.03;;;8.30;;
14015;SDS011;7083;48.854;9.158;2023-06-22T00:55:16;8.40;;;7.60;;
14015;SDS011;7083;48.854;9.158;2023-06-22T00:57:45;9.67;;;8.93;;
14015;SDS011;7083;48.854;9.158;2023-06-22T01:00:12;9.70;;;9.00;;
14015;SDS011;7083;48.854;9.158;2023-06-22T01:02:41;10.13;;;9.23;;
14015;SDS011;7083;48.854;9.158;2023-06-22T01:05:10;9.10;;;8.37;;
14015;SDS011;7083;48.854;9.158;2023-06-22T01:07:39;10.40;;;9.50;;
14015;SDS011;7083;48.854;9.158;2023-06-22T01:10:14;10.37;;;9.63;;
14015;SDS011;7083;48.854;9.158;2023-06-22T01:12:45;9.67;;;8.97;;
14015;SDS011;7083;48.854;9.158;2023-06-22T01:15:18;9.90;;;9.10;;
14015;SDS011;7083;48.854;9.158;2023-06-22T01:17:51;9.73;;;9.03;;
14015;SDS011;7083;48.854;9.158;2023-06-22T01:20:19;11.23;;;10.33;;
14015;SDS011;7083;48.854;9.158;2023-06-22T01:22:52;10.23;;;9.33;;
14015;SDS011;7083;48.854;9.158;2023-06-22T01:25:33;10.30;;;9.30;;
14015;SDS011;7083;48.854;9.158;2023-06-22T01:28:12;10.20;;;9.40;;
14015;SDS011;7083;48.854;9.158;2023-06-22T01:30:51;9.77;;;8.87;;
14015;SDS011;7083;48.854;9.158;2023-06-22T01:33:28;10.70;;;9.80;;
14015;SDS011;7083;48.854;9.158;2023-06-22T01:35:57;10.60;;;8.90;;
14015;SDS011;7083;48.854;9.158;2023-06-22T01:38:24;11.93;;;10.87;;
14015;SDS011;7083;48.854;9.158;2023-06-22T01:40:51;10.73;;;9.57;;
14015;SDS011;7083;48.854;9.158;2023-06-22T01:43:19;10.40;;;9.67;;
14015;SDS011;7083;48.854;9.158;2023-06-22T01:45:48;11.93;;;10.87;;
14015;SDS011;7083;48.854;9.158;2023-06-22T01:48:17;10.77;;;9.90;;
14015;SDS011;7083;48.854;9.158;2023-06-22T01:50:45;10.93;;;9.90;;
14015;SDS011;7083;48.854;9.158;2023-06-22T01:53:12;9.77;;;8.97;;
14015;SDS011;7083;48.854;9.158;2023-06-22T01:55:38;9.37;;;8.67;;
14015;SDS011;7083;48.854;9.158;2023-06-22T01:58:05;9.30;;;8.60;;
14015;SDS011;7083;48.854;9.158;2023-06-22T02:00:33;9.63;;;8.93;;
14015;SDS011;7083;48.854;9.158;2023-06-22T02:03:05;9.90;;;9.10;;
14015;SDS011;7083;48.854;9.158;2023-06-22T02:05:36;11.13;;;10.30;;
14015;SDS011;7083;48.854;9.158;2023-06-22T02:08:07;12.23;;;11.03;;
14015;SDS011;7083;48.854;9.158;2023-06-22T02:10:37;9.40;;;8.70;;
14015;SDS011;7083;48.854;9.158;2023-06-22T02:13:07;10.03;;;8.73;;
14015;SDS011;7083;48.854;9.158;2023-06-22T02:15:36;10.30;;;9.50;;
14015;SDS011;7083;48.854;9.158;2023-06-22T02:18:03;9.83;;;9.13;;
14015;SDS011;7083;48.854;9.158;2023-06-22T02:20:30;10.00;;;9.27;;
14015;SDS011;7083;48.854;9.158;2023-06-22T02:22:58;11.50;;;10.57;;
14015;SDS011;7083;48.854;9.158;2023-06-22T02:25:25;10.13;;;9.23;;
14015;SDS011;7083;48.854;9.158;2023-06-22T02:27:51;10.27;;;9.47;;
14015;SDS011;7083;48.854;9.158;2023-06-22T02:30:18;9.83;;;9.13;;
14015;SDS011;7083;48.854;9.158;2023-06-22T02:32:45;10.47;;;9.67;;
14015;SDS011;7083;48.854;9.158;2023-06-22T02:35:11;9.83;;;9.03;;
14015;SDS011;7083;48.854;9.158;2023-06-22T02:37:38;10.97;;;9.87;;
14015;SDS011;7083;48.854;9.158;2023-06-22T02:40:09;9.77;;;8.93;;
14015;SDS011;7083;48.854;9.158;2023-06-22T02:42:36;9.60;;;8.87;;
14015;SDS011;7083;48.854;9.158;2023-06-22T02:45:04;10.93;;;10.07;;
14015;SDS011;7083;48.854;9.158;2023-06-22T02:47:31;10.10;;;9.30;;
14015;SDS011;7083;48.854;9.158;2023-06-22T02:49:58;9.30;;;8.63;;
14015;SDS011;7083;48.854;9.158;2023-06-22T02:52:25;8.60;;;8.07;;
14015;SDS011;7083;48.854;9.158;2023-06-22T02:54:52;10.37;;;9.57;;
14015;SDS011;7083;48.854;9.158;2023-06-22T02:57:20;10.10;;;9.30;;
14015;SDS011;7083;48.854;9.158;2023-06-22T02:59:46;10.03;;;9.23;;
14015;SDS011;7083;48.854;9.158;2023-06-22T03:02:13;9.93;;;9.23;;
14015;SDS011;7083;48.854;9.158;2023-06-22T03:04:40;9.63;;;8.73;;
14015;SDS011;7083;48.854;9.158;2023-06-22T03:07:07;10.73;;;9.70;;
14015;SDS011;7083;48.854;9.158;2023-06-22T03:09:34;10.63;;;9.53;;
14015;SDS011;7083;48.854;9.158;2023-06-22T03:12:00;9.13;;;8.37;;
14015;SDS011;7083;48.854;9.158;2023-06-22T03:14:29;10.80;;;9.90;;
14015;SDS011;7083;48.854;9.158;2023-06-22T03:16:55;11.20;;;8.93;;
14015;SDS011;7083;48.854;9.158;2023-06-22T03:19:27;10.83;;;9.93;;
14015;SDS011;7083;48.854;9.158;2023-06-22T03:21:54;11.60;;;10.23;;
14015;SDS011;7083;48.854;9.158;2023-06-22T03:24:21;13.70;;;10.33;;
14015;SDS011;7083;48.854;9.158;2023-06-22T03:26:47;10.67;;;9.53;;
14015;SDS011;7083;48.854;9.158;2023-06-22T03:29:14;10.10;;;9.10;;
14015;SDS011;7083;48.854;9.158;2023-06-22T03:31:42;11.47;;;10.47;;
14015;SDS011;7083;48.854;9.158;2023-06-22T03:34:09;11.27;;;10.37;;
14015;SDS011;7083;48.854;9.158;2023-06-22T03:36:36;11.40;;;10.40;;
14015;SDS011;7083;48.854;9.158;2023-06-22T03:39:03;10.87;;;9.87;;
14015;SDS011;7083;48.854;9.158;2023-06-22T03:41:30;10.43;;;9.63;;
14015;SDS011;7083;48.854;9.158;2023-06-22T03:43:57;10.97;;;10.07;;
14015;SDS011;7083;48.854;9.158;2023-06-22T03:46:23;10.03;;;9.23;;
14015;SDS011;7083;48.854;9.158;2023-06-22T03:48:52;10.27;;;9.23;;
14015;SDS011;7083;48.854;9.158;2023-06-22T03:51:18;10.77;;;9.87;;
14015;SDS011;7083;48.854;9.158;2023-06-22T03:53:45;10.70;;;9.80;;
14015;SDS011;7083;48.854;9.158;2023-06-22T03:56:13;10.97;;;9.97;;
14015;SDS011;7083;48.854;9.158;2023-06-22T03:58:45;11.30;;;10.30;;
14015;SDS011;7083;48.854;9.158;2023-06-22T04:01:12;10.17;;;9.37;;
14015;SDS011;7083;48.854;9.158;2023-06-22T04:03:38;11.33;;;10.17;;
14015;SDS011;7083;48.854;9.158;2023-06-22T04:06:06;11.27;;;10.23;;
14015;SDS011;7083;48.854;9.158;2023-06-22T04:08:33;10.50;;;9.57;;
14015;SDS011;7083;48.854;9.158;2023-06-22T04:11:00;9.27;;;8.57;;
14015;SDS011;7083;48.854;9.158;2023-06-22T04:13:27;12.37;;;11.20;;
14015;SDS011;7083;48.854;9.158;2023-06-22T04:15:53;12.00;;;10.93;;
14015;SDS011;7083;48.854;9.158;2023-06-22T04:18:20;10.17;;;9.37;;
14015;SDS011;7083;48.854;9.158;2023-06-22T04:20:47;10.40;;;9.60;;
14015;SDS011;7083;48.854;9.158;2023-06-22T04:23:15;12.17;;;11.00;;
14015;SDS011;7083;48.854;9.158;2023-06-22T04:25:41;11.00;;;10.03;;
14015;SDS011;7083;48.854;9.158;2023-06-22T04:28:08;10.30;;;9.40;;
14015;SDS011;7083;48.854;9.158;2023-06-22T04:30:37;9.70;;;9.00;;
14015;SDS011;7083;48.854;9.158;2023-06-22T04:33:11;10.80;;;10.00;;
14015;SDS011;7083;48.854;9.158;2023-06-22T04:35:38;11.30;;;10.50;;
14015;SDS011;7083;48.854;9.158;2023-06-22T04:38:06;10.00;;;9.20;;
14015;SDS011;7083;48.854;9.158;2023-06-22T04:40:37;9.53;;;8.83;;
14015;SDS011;7083;48.854;9.158;2023-06-22T04:43:04;10.07;;;9.27;;
14015;SDS011;7083;48.854;9.158;2023-06-22T04:45:31;12.73;;;10.53;;
14015;SDS011;7083;48.854;9.158;2023-06-22T04:47:58;11.10;;;10.07;;
14015;SDS011;7083;48.854;9.158;2023-06-22T04:50:24;10.53;;;9.57;;
14015;SDS011;7083;48.854;9.158;2023-06-22T04:52:51;9.97;;;9.23;;
14015;SDS011;7083;48.854;9.158;2023-06-22T04:55:18;11.07;;;10.07;;
14015;SDS011;7083;48.854;9.158;2023-06-22T04:57:47;10.10;;;9.30;;
14015;SDS011;7083;48.854;9.158;2023-06-22T05:00:14;10.70;;;9.00;;
14015;SDS011;7083;48.854;9.158;2023-06-22T05:02:43;9.87;;;8.97;;
14015;SDS011;7083;48.854;9.158;2023-06-22T05:05:10;12.07;;;10.90;;
14015;SDS011;7083;48.854;9.158;2023-06-22T05:07:38;10.43;;;9.53;;
14015;SDS011;7083;48.854;9.158;2023-06-22T05:10:08;10.13;;;9.27;;
14015;SDS011;7083;48.854;9.158;2023-06-22T05:12:35;9.47;;;8.60;;
14015;SDS011;7083;48.854;9.158;2023-06-22T05:15:04;8.90;;;8.20;;
14015;SDS011;7083;48.854;9.158;2023-06-22T05:17:32;9.83;;;9.03;;
14015;SDS011;7083;48.854;9.158;2023-06-22T05:19:58;9.80;;;9.00;;
14015;SDS011;7083;48.854;9.158;2023-06-22T05:22:25;10.37;;;9.57;;
14015;SDS011;7083;48.854;9.158;2023-06-22T05:24:52;10.80;;;10.00;;
14015;SDS011;7083;48.854;9.158;2023-06-22T05:27:18;9.43;;;8.73;;
14015;SDS011;7083;48.854;9.158;2023-06-22T05:29:45;10.53;;;9.43;;
14015;SDS011;7083;48.854;9.158;2023-06-22T05:32:13;11.10;;;10.10;;
14015;SDS011;7083;48.854;9.158;2023-06-22T05:34:40;10.17;;;9.37;;
14015;SDS011;7083;48.854;9.158;2023-06-22T05:37:06;8.03;;;7.43;;
14015;SDS011;7083;48.854;9.158;2023-06-22T05:39:34;9.93;;;9.10;;
14015;SDS011;7083;48.854;9.158;2023-06-22T05:42:03;10.87;;;9.60;;
14015;SDS011;7083;48.854;9.158;2023-06-22T05:44:30;10.60;;;8.63;;
14015;SDS011;7083;48.854;9.158;2023-06-22T05:46:58;10.73;;;9.60;;
14015;SDS011;7083;48.854;9.158;2023-06-22T05:49:26;10.20;;;9.30;;
14015;SDS011;7083;48.854;9.158;2023-06-22T05:51:57;9.30;;;8.53;;
14015;SDS011;7083;48.854;9.158;2023-06-22T05:54:24;8.73;;;7.97;;
14015;SDS011;7083;48.854;9.158;2023-06-22T05:56:51;9.00;;;8.20;;
14015;SDS011;7083;48.854;9.158;2023-06-22T05:59:17;10.90;;;9.90;;
14015;SDS011;7083;48.854;9.158;2023-06-22T06:01:44;9.50;;;8.60;;
14015;SDS011;7083;48.854;9.158;2023-06-22T06:04:14;9.53;;;8.63;;
14015;SDS011;7083;48.854;9.158;2023-06-22T06:06:42;8.33;;;7.73;;
14015;SDS011;7083;48.854;9.158;2023-06-22T06:09:09;9.90;;;8.37;;
14015;SDS011;7083;48.854;9.158;2023-06-22T06:11:36;8.63;;;8.00;;
14015;SDS011;7083;48.854;9.158;2023-06-22T06:14:03;11.53;;;10.33;;
14015;SDS011;7083;48.854;9.158;2023-06-22T06:16:29;15.60;;;8.70;;
14015;SDS011;7083;48.854;9.158;2023-06-22T06:18:56;9.33;;;8.43;;
14015;SDS011;7083;48.854;9.158;2023-06-22T06:21:23;8.80;;;8.10;;
14015;SDS011;7083;48.854;9.158;2023-06-22T06:23:51;10.60;;;9.67;;
14015;SDS011;7083;48.854;9.158;2023-06-22T06:26:18;10.63;;;9.57;;
14015;SDS011;7083;48.854;9.158;2023-06-22T06:28:53;10.50;;;9.40;;
14015;SDS011;7083;48.854;9.158;2023-06-22T06:31:19;8.20;;;7.40;;
14015;SDS011;7083;48.854;9.158;2023-06-22T06:33:46;8.40;;;7.60;;
14015;SDS011;7083;48.854;9.158;2023-06-22T06:36:13;8.57;;;7.80;;
14015;SDS011;7083;48.854;9.158;2023-06-22T06:38:40;9.57;;;8.67;;
14015;SDS011;7083;48.854;9.158;2023-06-22T06:41:08;10.33;;;8.97;;
14015;SDS011;7083;48.854;9.158;2023-06-22T06:43:35;7.47;;;6.90;;
14015;SDS011;7083;48.854;9.158;2023-06-22T06:46:01;8.93;;;8.03;;
14015;SDS011;7083;48.854;9.158;2023-06-22T06:48:29;8.60;;;7.90;;
14015;SDS011;7083;48.854;9.158;2023-06-22T06:50:55;9.60;;;8.53;;
14015;SDS011;7083;48.854;9.158;2023-06-22T06:53:22;33.57;;;10.97;;
14015;SDS011;7083;48.854;9.158;2023-06-22T06:55:48;9.20;;;8.43;;
14015;SDS011;7083;48.854;9.158;2023-06-22T06:58:16;7.80;;;7.03;;
14015;SDS011;7083;48.854;9.158;2023-06-22T07:00:43;8.33;;;7.63;;
14015;SDS011;7083;48.854;9.158;2023-06-22T07:03:10;7.83;;;7.07;;
14015;SDS011;7083;48.854;9.158;2023-06-22T07:05:36;6.97;;;6.37;;
14015;SDS011;7083;48.854;9.158;2023-06-22T07:08:03;6.57;;;5.97;;
14015;SDS011;7083;48.854;9.158;2023-06-22T07:10:30;7.20;;;6.30;;
14015;SDS011;7083;48.854;9.158;2023-06-22T07:12:57;8.17;;;7.47;;
14015;SDS011;7083;48.854;9.158;2023-06-22T07:15:25;10.20;;;7.23;;
14015;SDS011;7083;48.854;9.158;2023-06-22T07:17:51;8.13;;;7.53;;
14015;SDS011;7083;48.854;9.158;2023-06-22T07:20:18;8.23;;;7.43;;
14015;SDS011;7083;48.854;9.158;2023-06-22T07:22:45;7.27;;;6.67;;
14015;SDS011;7083;48.854;9.158;2023-06-22T07:25:11;8.30;;;6.53;;
14015;SDS011;7083;48.854;9.158;2023-06-22T07:27:43;9.83;;;7.70;;
14015;SDS011;7083;48.854;9.158;2023-06-22T07:30:11;6.57;;;6.03;;
14015;SDS011;7083;48.854;9.158;2023-06-22T07:32:40;8.17;;;6.40;;
14015;SDS011;7083;48.854;9.158;2023-06-22T07:35:07;6.73;;;6.03;;
14015;SDS011;7083;48.854;9.158;2023-06-22T07:37:34;7.93;;;5.63;;
14015;SDS011;7083;48.854;9.158;2023-06-22T07:40:01;8.13;;;7.20;;
14015;SDS011;7083;48.854;9.158;2023-06-22T07:42:31;6.90;;;6.33;;
14015;SDS011;7083;48.854;9.158;2023-06-22T07:44:58;8.87;;;5.57;;
14015;SDS011;7083;48.854;9.158;2023-06-22T07:47:25;6.93;;;6.07;;
14015;SDS011;7083;48.854;9.158;2023-06-22T07:49:54;6.53;;;5.93;;
14015;SDS011;7083;48.854;9.158;2023-06-22T07:52:22;6.83;;;6.17;;
14015;SDS011;7083;48.854;9.158;2023-06-22T07:54:49;6.23;;;5.53;;
14015;SDS011;7083;48.854;9.158;2023-06-22T07:57:16;8.87;;;5.90;;
14015;SDS011;7083;48.854;9.158;2023-06-22T07:59:43;9.10;;;5.87;;
14015;SDS011;7083;48.854;9.158;2023-06-22T08:02:10;5.60;;;5.10;;
14015;SDS011;7083;48.854;9.158;2023-06-22T08:04:37;7.47;;;5.87;;
14015;SDS011;7083;48.854;9.158;2023-06-22T08:07:05;5.90;;;5.30;;
14015;SDS011;7083;48.854;9.158;2023-06-22T08:09:32;7.90;;;5.77;;
14015;SDS011;7083;48.854;9.158;2023-06-22T08:11:59;7.87;;;5.27;;
14015;SDS011;7083;48.854;9.158;2023-06-22T08:14:26;10.37;;;5.73;;
14015;SDS011;7083;48.854;9.158;2023-06-22T08:16:53;7.13;;;5.53;;
14015;SDS011;7083;48.854;9.158;2023-06-22T08:19:20;8.20;;;5.87;;
14015;SDS011;7083;48.854;9.158;2023-06-22T08:21:47;6.50;;;5.63;;
14015;SDS011;7083;48.854;9.158;2023-06-22T08:24:14;5.53;;;5.00;;
14015;SDS011;7083;48.854;9.158;2023-06-22T08:26:41;7.20;;;5.00;;
14015;SDS011;7083;48.854;9.158;2023-06-22T08:29:08;6.07;;;5.47;;
14015;SDS011;7083;48.854;9.158;2023-06-22T08:31:35;7.20;;;4.83;;
14015;SDS011;7083;48.854;9.158;2023-06-22T08:34:02;5.53;;;4.93;;
14015;SDS011;7083;48.854;9.158;2023-06-22T08:36:29;5.47;;;5.07;;
14015;SDS011;7083;48.854;9.158;2023-06-22T08:38:57;6.03;;;5.53;;
14015;SDS011;7083;48.854;9.158;2023-06-22T08:41:27;5.73;;;5.17;;
14015;SDS011;7083;48.854;9.158;2023-06-22T08:43:54;6.30;;;5.30;;
14015;SDS011;7083;48.854;9.158;2023-06-22T08:46:21;5.30;;;4.80;;
14015;SDS011;7083;48.854;9.158;2023-06-22T08:48:55;5.83;;;5.00;;
14015;SDS011;7083;48.854;9.158;2023-06-22T08:51:21;5.20;;;4.80;;
14015;SDS011;7083;48.854;9.158;2023-06-22T08:53:48;6.47;;;5.10;;
14015;SDS011;7083;48.854;9.158;2023-06-22T08:56:15;6.57;;;5.07;;
14015;SDS011;7083;48.854;9.158;2023-06-22T08:58:43;6.43;;;4.90;;
14015;SDS011;7083;48.854;9.158;2023-06-22T09:01:09;7.00;;;5.17;;
14015;SDS011;7083;48.854;9.158;2023-06-22T09:03:36;4.70;;;4.40;;
14015;SDS011;7083;48.854;9.158;2023-06-22T09:06:03;6.90;;;4.87;;
14015;SDS011;7083;48.854;9.158;2023-06-22T09:08:29;8.73;;;5.37;;
14015;SDS011;7083;48.854;9.158;2023-06-22T09:10:56;8.70;;;5.77;;
14015;SDS011;7083;48.854;9.158;2023-06-22T09:13:23;6.80;;;5.10;;
14015;SDS011;7083;48.854;9.158;2023-06-22T09:15:51;4.82;;;4.43;;
14015;SDS011;7083;48.854;9.158;2023-06-22T09:18:17;5.57;;;4.97;;
14015;SDS011;7083;48.854;9.158;2023-06-22T09:20:44;5.78;;;5.22;;
14015;SDS011;7083;48.854;9.158;2023-06-22T09:23:11;5.18;;;4.78;;
14015;SDS011;7083;48.854;9.158;2023-06-22T09:25:38;7.40;;;4.82;;
14015;SDS011;7083;48.854;9.158;2023-06-22T09:28:05;7.67;;;5.03;;
14015;SDS011;7083;48.854;9.158;2023-06-22T09:30:31;7.70;;;5.75;;
14015;SDS011;7083;48.854;9.158;2023-06-22T09:32:59;7.90;;;5.25;;
14015;SDS011;7083;48.854;9.158;2023-06-22T09:35:27;6.43;;;5.50;;
14015;SDS011;7083;48.854;9.158;2023-06-22T09:37:53;6.05;;;4.80;;
14015;SDS011;7083;48.854;9.158;2023-06-22T09:40:20;5.57;;;5.07;;
14015;SDS011;7083;48.854;9.158;2023-06-22T09:42:47;5.82;;;5.30;;
14015;SDS011;7083;48.854;9.158;2023-06-22T09:45:13;6.53;;;5.53;;
14015;SDS011;7083;48.854;9.158;2023-06-22T09:47:40;8.95;;;4.88;;
14015;SDS011;7083;48.854;9.158;2023-06-22T09:50:09;5.50;;;4.95;;
14015;SDS011;7083;48.854;9.158;2023-06-22T09:52:36;9.15;;;5.50;;
14015;SDS011;7083;48.854;9.158;2023-06-22T09:55:03;5.50;;;5.00;;
14015;SDS011;7083;48.854;9.158;2023-06-22T09:57:30;6.43;;;4.63;;
14015;SDS011;7083;48.854;9.158;2023-06-22T09:59:57;8.60;;;5.45;;
14015;SDS011;7083;48.854;9.158;2023-06-22T10:02:24;6.95;;;5.22;;
14015;SDS011;7083;48.854;9.158;2023-06-22T10:04:51;6.75;;;4.85;;
14015;SDS011;7083;48.854;9.158;2023-06-22T10:07:19;8.15;;;5.40;;
14015;SDS011;7083;48.854;9.158;2023-06-22T10:09:45;5.65;;;4.72;;
14015;SDS011;7083;48.854;9.158;2023-06-22T10:12:12;9.38;;;5.40;;
14015;SDS011;7083;48.854;9.158;2023-06-22T10:14:38;5.22;;;4.70;;
14015;SDS011;7083;48.854;9.158;2023-06-22T10:17:05;14.13;;;6.55;;
14015;SDS011;7083;48.854;9.158;2023-06-22T10:19:33;5.68;;;4.80;;
14015;SDS011;7083;48.854;9.158;2023-06-22T10:22:02;8.70;;;5.53;;
14015;SDS011;7083;48.854;9.158;2023-06-22T10:24:30;7.32;;;4.93;;
14015;SDS011;7083;48.854;9.158;2023-06-22T10:26:57;5.82;;;5.32;;
14015;SDS011;7083;48.854;9.158;2023-06-22T10:29:23;6.78;;;5.18;;
14015;SDS011;7083;48.854;9.158;2023-06-22T10:31:50;5.65;;;4.43;;
14015;SDS011;7083;48.854;9.158;2023-06-22T10:34:17;6.55;;;4.95;;
14015;SDS011;7083;48.854;9.158;2023-06-22T10:36:43;6.13;;;5.22;;
14015;SDS011;7083;48.854;9.158;2023-06-22T10:39:12;5.00;;;4.60;;
14015;SDS011;7083;48.854;9.158;2023-06-22T10:41:40;9.85;;;6.25;;
14015;SDS011;7083;48.854;9.158;2023-06-22T10:44:06;6.07;;;5.47;;
14015;SDS011;7083;48.854;9.158;2023-06-22T10:46:33;5.85;;;5.13;;
14015;SDS011;7083;48.854;9.158;2023-06-22T10:49:00;5.70;;;5.05;;
14015;SDS011;7083;48.854;9.158;2023-06-22T10:51:26;10.65;;;5.90;;
14015;SDS011;7083;48.854;9.158;2023-06-22T10:53:53;5.43;;;4.85;;
14015;SDS011;7083;48.854;9.158;2023-06-22T10:56:20;6.57;;;5.13;;
14015;SDS011;7083;48.854;9.158;2023-06-22T10:58:48;7.47;;;5.25;;
14015;SDS011;7083;48.854;9.158;2023-06-22T11:01:15;7.93;;;5.68;;
14015;SDS011;7083;48.854;9.158;2023-06-22T11:03:42;10.35;;;4.78;;
14015;SDS011;7083;48.854;9.158;2023-06-22T11:06:09;5.95;;;5.30;;
14015;SDS011;7083;48.854;9.158;2023-06-22T11:08:35;5.75;;;5.18;;
14015;SDS011;7083;48.854;9.158;2023-06-22T11:11:02;8.35;;;5.95;;
14015;SDS011;7083;48.854;9.158;2023-06-22T11:13:28;7.35;;;5.63;;
14015;SDS011;7083;48.854;9.158;2023-06-22T11:15:56;10.82;;;5.40;;
14015;SDS011;7083;48.854;9.158;2023-06-22T11:18:23;6.45;;;5.70;;
14015;SDS011;7083;48.854;9.158;2023-06-22T11:20:50;6.43;;;5.28;;
14015;SDS011;7083;48.854;9.158;2023-06-22T11:23:16;4.90;;;4.45;;
14015;SDS011;7083;48.854;9.158;2023-06-22T11:25:44;6.78;;;5.25;;
14015;SDS011;7083;48.854;9.158;2023-06-22T11:28:11;8.27;;;4.70;;
14015;SDS011;7083;48.854;9.158;2023-06-22T11:30:37;5.78;;;5.03;;
14015;SDS011;7083;48.854;9.158;2023-06-22T11:33:05;8.15;;;5.82;;
14015;SDS011;7083;48.854;9.158;2023-06-22T11:35:32;6.72;;;5.25;;
14015;SDS011;7083;48.854;9.158;2023-06-22T11:37:59;10.45;;;5.72;;
14015;SDS011;7083;48.854;9.158;2023-06-22T11:40:25;10.27;;;8.70;;
14015;SDS011;7083;48.854;9.158;2023-06-22T11:42:52;6.95;;;6.35;;
14015;SDS011;7083;48.854;9.158;2023-06-22T11:45:19;5.95;;;5.28;;
14015;SDS011;7083;48.854;9.158;2023-06-22T11:47:46;7.13;;;4.63;;
14015;SDS011;7083;48.854;9.158;2023-06-22T11:50:14;4.95;;;4.40;;
14015;SDS011;7083;48.854;9.158;2023-06-22T11:52:40;7.95;;;5.15;;
14015;SDS011;7083;48.854;9.158;2023-06-22T11:55:07;5.97;;;4.90;;
14015;SDS011;7083;48.854;9.158;2023-06-22T11:57:35;9.80;;;5.75;;
14015;SDS011;7083;48.854;9.158;2023-06-22T12:00:02;5.45;;;4.85;;
14015;SDS011;7083;48.854;9.158;2023-06-22T12:02:40;6.50;;;4.75;;
14015;SDS011;7083;48.854;9.158;2023-06-22T12:05:07;6.82;;;5.22;;
14015;SDS011;7083;48.854;9.158;2023-06-22T12:07:35;8.63;;;4.75;;
14015;SDS011;7083;48.854;9.158;2023-06-22T12:10:02;7.50;;;5.05;;
14015;SDS011;7083;48.854;9.158;2023-06-22T12:12:29;4.83;;;4.30;;
14015;SDS011;7083;48.854;9.158;2023-06-22T12:14:56;6.75;;;5.07;;
14015;SDS011;7083;48.854;9.158;2023-06-22T12:17:23;6.00;;;5.30;;
14015;SDS011;7083;48.854;9.158;2023-06-22T12:19:49;5.57;;;5.07;;
14015;SDS011;7083;48.854;9.158;2023-06-22T12:22:16;5.88;;;5.28;;
14015;SDS011;7083;48.854;9.158;2023-06-22T12:24:44;5.97;;;5.32;;
14015;SDS011;7083;48.854;9.158;2023-06-22T12:27:10;8.15;;;5.25;;
14015;SDS011;7083;48.854;9.158;2023-06-22T12:29:37;6.07;;;4.80;;
14015;SDS011;7083;48.854;9.158;2023-06-22T12:32:04;5.85;;;5.18;;
14015;SDS011;7083;48.854;9.158;2023-06-22T12:34:31;7.28;;;5.47;;
14015;SDS011;7083;48.854;9.158;2023-06-22T12:36:58;6.47;;;5.78;;
14015;SDS011;7083;48.854;9.158;2023-06-22T12:39:24;8.65;;;5.60;;
14015;SDS011;7083;48.854;9.158;2023-06-22T12:41:52;6.78;;;5.30;;
14015;SDS011;7083;48.854;9.158;2023-06-22T12:44:19;5.75;;;4.97;;
14015;SDS011;7083;48.854;9.158;2023-06-22T12:46:46;6.10;;;5.25;;
14015;SDS011;7083;48.854;9.158;2023-06-22T12:49:13;8.18;;;5.75;;
14015;SDS011;7083;48.854;9.158;2023-06-22T12:51:40;7.43;;;5.90;;
14015;SDS011;7083;48.854;9.158;2023-06-22T12:54:07;5.25;;;4.70;;
14015;SDS011;7083;48.854;9.158;2023-06-22T12:56:34;14.60;;;5.82;;
14015;SDS011;7083;48.854;9.158;2023-06-22T12:59:02;6.68;;;4.82;;
14015;SDS011;7083;48.854;9.158;2023-06-22T13:01:29;6.30;;;4.65;;
14015;SDS011;7083;48.854;9.158;2023-06-22T13:03:56;6.03;;;4.25;;
14015;SDS011;7083;48.854;9.158;2023-06-22T13:06:23;8.85;;;6.15;;
14015;SDS011;7083;48.854;9.158;2023-06-22T13:08:50;6.50;;;5.43;;
14015;SDS011;7083;48.854;9.158;2023-06-22T13:11:17;5.80;;;5.10;;
14015;SDS011;7083;48.854;9.158;2023-06-22T13:13:44;7.68;;;5.72;;
14015;SDS011;7083;48.854;9.158;2023-06-22T13:16:12;5.40;;;4.90;;
14015;SDS011;7083;48.854;9.158;2023-06-22T13:18:39;8.05;;;5.25;;
14015;SDS011;7083;48.854;9.158;2023-06-22T13:21:06;6.22;;;5.03;;
14015;SDS011;7083;48.854;9.158;2023-06-22T13:23:32;5.97;;;5.05;;
14015;SDS011;7083;48.854;9.158;2023-06-22T13:26:00;5.22;;;4.75;;
14015;SDS011;7083;48.854;9.158;2023-06-22T13:28:27;7.15;;;4.75;;
14015;SDS011;7083;48.854;9.158;2023-06-22T13:30:55;5.97;;;5.45;;
14015;SDS011;7083;48.854;9.158;2023-06-22T13:33:23;5.72;;;5.13;;
14015;SDS011;7083;48.854;9.158;2023-06-22T13:35:49;8.18;;;4.95;;
14015;SDS011;7083;48.854;9.158;2023-06-22T13:38:16;8.50;;;4.90;;
14015;SDS011;7083;48.854;9.158;2023-06-22T13:40:43;8.02;;;5.85;;
14015;SDS011;7083;48.854;9.158;2023-06-22T13:43:10;7.63;;;5.13;;
14015;SDS011;7083;48.854;9.158;2023-06-22T13:45:36;6.55;;;4.78;;
14015;SDS011;7083;48.854;9.158;2023-06-22T13:48:03;5.88;;;5.30;;
14015;SDS011;7083;48.854;9.158;2023-06-22T13:50:32;11.73;;;5.95;;
14015;SDS011;7083;48.854;9.158;2023-06-22T13:52:58;9.00;;;5.28;;
14015;SDS011;7083;48.854;9.158;2023-06-22T13:55:25;6.00;;;5.18;;
14015;SDS011;7083;48.854;9.158;2023-06-22T13:57:52;8.35;;;5.35;;
14015;SDS011;7083;48.854;9.158;2023-06-22T14:00:19;7.68;;;5.28;;
14015;SDS011;7083;48.854;9.158;2023-06-22T14:02:46;5.88;;;5.05;;
14015;SDS011;7083;48.854;9.158;2023-06-22T14:05:12;6.68;;;5.13;;
14015;SDS011;7083;48.854;9.158;2023-06-22T14:07:40;6.75;;;5.13;;
14015;SDS011;7083;48.854;9.158;2023-06-22T14:10:07;7.68;;;4.82;;
14015;SDS011;7083;48.854;9.158;2023-06-22T14:12:34;5.97;;;4.95;;
14015;SDS011;7083;48.854;9.158;2023-06-22T14:15:01;8.57;;;5.05;;
14015;SDS011;7083;48.854;9.158;2023-06-22T14:17:27;4.97;;;4.50;;
14015;SDS011;7083;48.854;9.158;2023-06-22T14:19:54;7.15;;;4.90;;
14015;SDS011;7083;48.854;9.158;2023-06-22T14:22:21;7.72;;;4.80;;
14015;SDS011;7083;48.854;9.158;2023-06-22T14:24:49;7.53;;;5.05;;
14015;SDS011;7083;48.854;9.158;2023-06-22T14:27:16;6.15;;;5.50;;
14015;SDS011;7083;48.854;9.158;2023-06-22T14:29:43;6.40;;;5.10;;
14015;SDS011;7083;48.854;9.158;2023-06-22T14:32:09;6.40;;;5.40;;
14015;SDS011;7083;48.854;9.158;2023-06-22T14:34:36;7.97;;;5.05;;
14015;SDS011;7083;48.854;9.158;2023-06-22T14:37:04;9.13;;;5.05;;
14015;SDS011;7083;48.854;9.158;2023-06-22T14:39:32;9.40;;;5.50;;
14015;SDS011;7083;48.854;9.158;2023-06-22T14:41:59;8.63;;;4.40;;
14015;SDS011;7083;48.854;9.158;2023-06-22T14:44:27;10.20;;;5.60;;
14015;SDS011;7083;48.854;9.158;2023-06-22T14:46:54;5.95;;;5.05;;
14015;SDS011;7083;48.854;9.158;2023-06-22T14:49:21;11.60;;;5.07;;
14015;SDS011;7083;48.854;9.158;2023-06-22T14:51:48;6.97;;;4.18;;
14015;SDS011;7083;48.854;9.158;2023-06-22T14:54:15;11.82;;;4.05;;
14015;SDS011;7083;48.854;9.158;2023-06-22T14:56:41;5.30;;;4.72;;